CEB weather

Mactan Cebu International Airport
Lapu-Lapu City, Cebu Province, Philippines

Public forecast

Using degrees Celsius for public forecast. Weather courtesy of forecast.io.

METAR (pilot weather report)

Retrieved 2019/03/19 15:00 UTC (9 minutes ago):

RPVM 191500Z 04009KT 9999 FEW020 26/23 Q1013 RMK A2991

TAF (pilot weather forecast)

Retrieved 2019/03/19 12:00 UTC (3 hours ago):

TAF RPVM 191100Z 1912/2018 04008KT 9999 FEW020 BKN300 TEMPO 1912/1918 04012KT 9000 -SHRA FEW020 BKN090 TEMPO 1918/2924 03012KT FEW020 BKN100